sensor_id;sensor_type;location;lat;lon;timestamp;P1;durP1;ratioP1;P2;durP2;ratioP2
10617;SDS011;5356;43.526;26.534;2024-02-23T00:00:53;15.90;;;9.15;;
10617;SDS011;5356;43.526;26.534;2024-02-23T00:03:18;15.50;;;8.77;;
10617;SDS011;5356;43.526;26.534;2024-02-23T00:05:44;15.57;;;8.77;;
10617;SDS011;5356;43.526;26.534;2024-02-23T00:08:09;15.02;;;8.43;;
10617;SDS011;5356;43.526;26.534;2024-02-23T00:10:35;16.45;;;9.00;;
10617;SDS011;5356;43.526;26.534;2024-02-23T00:13:00;15.73;;;8.95;;
10617;SDS011;5356;43.526;26.534;2024-02-23T00:15:26;16.90;;;9.13;;
10617;SDS011;5356;43.526;26.534;2024-02-23T00:17:51;14.48;;;8.70;;
10617;SDS011;5356;43.526;26.534;2024-02-23T00:20:17;15.43;;;7.82;;
10617;SDS011;5356;43.526;26.534;2024-02-23T00:22:42;16.40;;;9.38;;
10617;SDS011;5356;43.526;26.534;2024-02-23T00:25:08;17.45;;;9.25;;
10617;SDS011;5356;43.526;26.534;2024-02-23T00:27:33;16.50;;;9.32;;
10617;SDS011;5356;43.526;26.534;2024-02-23T00:29:59;16.95;;;8.73;;
10617;SDS011;5356;43.526;26.534;2024-02-23T00:32:25;17.33;;;9.57;;
10617;SDS011;5356;43.526;26.534;2024-02-23T00:34:50;15.55;;;8.60;;
10617;SDS011;5356;43.526;26.534;2024-02-23T00:37:16;18.85;;;9.82;;
10617;SDS011;5356;43.526;26.534;2024-02-23T00:39:41;15.93;;;9.43;;
10617;SDS011;5356;43.526;26.534;2024-02-23T00:42:07;16.92;;;8.32;;
10617;SDS011;5356;43.526;26.534;2024-02-23T00:44:32;15.32;;;8.43;;
10617;SDS011;5356;43.526;26.534;2024-02-23T00:46:58;15.50;;;9.07;;
10617;SDS011;5356;43.526;26.534;2024-02-23T00:49:26;15.77;;;8.98;;
10617;SDS011;5356;43.526;26.534;2024-02-23T00:51:53;17.30;;;9.85;;
10617;SDS011;5356;43.526;26.534;2024-02-23T00:54:18;16.02;;;9.13;;
10617;SDS011;5356;43.526;26.534;2024-02-23T00:56:44;15.55;;;9.10;;
10617;SDS011;5356;43.526;26.534;2024-02-23T00:59:10;14.55;;;9.10;;
10617;SDS011;5356;43.526;26.534;2024-02-23T01:01:35;17.70;;;9.93;;
10617;SDS011;5356;43.526;26.534;2024-02-23T01:04:01;15.35;;;9.32;;
10617;SDS011;5356;43.526;26.534;2024-02-23T01:06:26;16.80;;;8.75;;
10617;SDS011;5356;43.526;26.534;2024-02-23T01:08:56;19.38;;;9.90;;
10617;SDS011;5356;43.526;26.534;2024-02-23T01:11:22;18.52;;;10.00;;
10617;SDS011;5356;43.526;26.534;2024-02-23T01:13:47;17.85;;;9.70;;
10617;SDS011;5356;43.526;26.534;2024-02-23T01:16:12;16.10;;;9.13;;
10617;SDS011;5356;43.526;26.534;2024-02-23T01:18:38;18.23;;;9.68;;
10617;SDS011;5356;43.526;26.534;2024-02-23T01:21:03;18.65;;;9.85;;
10617;SDS011;5356;43.526;26.534;2024-02-23T01:23:29;16.10;;;9.23;;
10617;SDS011;5356;43.526;26.534;2024-02-23T01:25:54;17.60;;;9.57;;
10617;SDS011;5356;43.526;26.534;2024-02-23T01:28:20;13.68;;;8.32;;
10617;SDS011;5356;43.526;26.534;2024-02-23T01:30:45;17.10;;;9.05;;
10617;SDS011;5356;43.526;26.534;2024-02-23T01:33:11;17.05;;;9.82;;
10617;SDS011;5356;43.526;26.534;2024-02-23T01:35:36;16.15;;;9.27;;
10617;SDS011;5356;43.526;26.534;2024-02-23T01:38:02;18.73;;;8.73;;
10617;SDS011;5356;43.526;26.534;2024-02-23T01:40:27;19.83;;;11.43;;
10617;SDS011;5356;43.526;26.534;2024-02-23T01:43:27;17.77;;;11.02;;
10617;SDS011;5356;43.526;26.534;2024-02-23T01:45:45;16.85;;;10.15;;
10617;SDS011;5356;43.526;26.534;2024-02-23T01:48:11;15.32;;;8.63;;
10617;SDS011;5356;43.526;26.534;2024-02-23T01:50:36;15.07;;;9.45;;
10617;SDS011;5356;43.526;26.534;2024-02-23T01:53:02;18.10;;;10.80;;
10617;SDS011;5356;43.526;26.534;2024-02-23T01:55:28;16.95;;;10.02;;
10617;SDS011;5356;43.526;26.534;2024-02-23T01:57:54;15.93;;;9.13;;
10617;SDS011;5356;43.526;26.534;2024-02-23T02:00:20;16.90;;;9.48;;
10617;SDS011;5356;43.526;26.534;2024-02-23T02:02:47;16.95;;;8.68;;
10617;SDS011;5356;43.526;26.534;2024-02-23T02:05:13;19.88;;;9.25;;
10617;SDS011;5356;43.526;26.534;2024-02-23T02:07:39;18.73;;;9.45;;
10617;SDS011;5356;43.526;26.534;2024-02-23T02:10:06;16.88;;;9.30;;
10617;SDS011;5356;43.526;26.534;2024-02-23T02:12:34;18.10;;;9.55;;
10617;SDS011;5356;43.526;26.534;2024-02-23T02:15:00;17.48;;;10.00;;
10617;SDS011;5356;43.526;26.534;2024-02-23T02:17:29;18.92;;;8.90;;
10617;SDS011;5356;43.526;26.534;2024-02-23T02:19:55;15.88;;;9.13;;
10617;SDS011;5356;43.526;26.534;2024-02-23T02:22:23;17.33;;;9.75;;
10617;SDS011;5356;43.526;26.534;2024-02-23T02:24:49;19.00;;;10.05;;
10617;SDS011;5356;43.526;26.534;2024-02-23T02:27:15;18.35;;;10.60;;
10617;SDS011;5356;43.526;26.534;2024-02-23T02:29:40;19.73;;;10.90;;
10617;SDS011;5356;43.526;26.534;2024-02-23T02:32:06;17.65;;;10.38;;
10617;SDS011;5356;43.526;26.534;2024-02-23T02:34:31;16.40;;;9.65;;
10617;SDS011;5356;43.526;26.534;2024-02-23T02:36:57;16.05;;;9.63;;
10617;SDS011;5356;43.526;26.534;2024-02-23T02:39:22;16.95;;;9.90;;
10617;SDS011;5356;43.526;26.534;2024-02-23T02:41:48;19.02;;;9.38;;
10617;SDS011;5356;43.526;26.534;2024-02-23T02:44:14;16.00;;;9.82;;
10617;SDS011;5356;43.526;26.534;2024-02-23T02:46:40;15.02;;;9.18;;
10617;SDS011;5356;43.526;26.534;2024-02-23T02:49:06;17.48;;;9.63;;
10617;SDS011;5356;43.526;26.534;2024-02-23T02:51:32;17.73;;;10.45;;
10617;SDS011;5356;43.526;26.534;2024-02-23T02:53:57;19.80;;;9.27;;
10617;SDS011;5356;43.526;26.534;2024-02-23T02:56:23;20.23;;;10.60;;
10617;SDS011;5356;43.526;26.534;2024-02-23T02:58:48;15.52;;;8.55;;
10617;SDS011;5356;43.526;26.534;2024-02-23T03:01:14;17.35;;;9.75;;
10617;SDS011;5356;43.526;26.534;2024-02-23T03:03:39;20.52;;;10.73;;
10617;SDS011;5356;43.526;26.534;2024-02-23T03:06:05;15.93;;;10.23;;
10617;SDS011;5356;43.526;26.534;2024-02-23T03:08:31;20.60;;;10.73;;
10617;SDS011;5356;43.526;26.534;2024-02-23T03:10:56;20.42;;;10.82;;
10617;SDS011;5356;43.526;26.534;2024-02-23T03:13:22;16.90;;;9.65;;
10617;SDS011;5356;43.526;26.534;2024-02-23T03:15:47;19.45;;;10.52;;
10617;SDS011;5356;43.526;26.534;2024-02-23T03:18:13;19.77;;;10.02;;
10617;SDS011;5356;43.526;26.534;2024-02-23T03:20:40;16.08;;;9.13;;
10617;SDS011;5356;43.526;26.534;2024-02-23T03:23:09;18.42;;;9.77;;
10617;SDS011;5356;43.526;26.534;2024-02-23T03:25:35;17.75;;;9.35;;
10617;SDS011;5356;43.526;26.534;2024-02-23T03:28:00;16.73;;;9.23;;
10617;SDS011;5356;43.526;26.534;2024-02-23T03:30:26;15.05;;;9.05;;
10617;SDS011;5356;43.526;26.534;2024-02-23T03:32:51;17.40;;;9.73;;
10617;SDS011;5356;43.526;26.534;2024-02-23T03:35:17;14.85;;;9.02;;
10617;SDS011;5356;43.526;26.534;2024-02-23T03:37:42;18.88;;;10.50;;
10617;SDS011;5356;43.526;26.534;2024-02-23T03:40:08;19.13;;;9.82;;
10617;SDS011;5356;43.526;26.534;2024-02-23T03:42:35;21.20;;;10.32;;
10617;SDS011;5356;43.526;26.534;2024-02-23T03:45:01;16.35;;;9.43;;
10617;SDS011;5356;43.526;26.534;2024-02-23T03:47:26;18.23;;;11.00;;
10617;SDS011;5356;43.526;26.534;2024-02-23T03:49:52;17.42;;;10.43;;
10617;SDS011;5356;43.526;26.534;2024-02-23T03:52:17;18.75;;;11.05;;
10617;SDS011;5356;43.526;26.534;2024-02-23T03:54:43;45.30;;;19.08;;
10617;SDS011;5356;43.526;26.534;2024-02-23T03:57:08;35.80;;;16.00;;
10617;SDS011;5356;43.526;26.534;2024-02-23T03:59:35;23.23;;;13.23;;
10617;SDS011;5356;43.526;26.534;2024-02-23T04:02:02;24.10;;;12.27;;
10617;SDS011;5356;43.526;26.534;2024-02-23T04:04:28;19.70;;;12.00;;
10617;SDS011;5356;43.526;26.534;2024-02-23T04:06:53;26.80;;;13.00;;
10617;SDS011;5356;43.526;26.534;2024-02-23T04:09:19;19.50;;;11.35;;
10617;SDS011;5356;43.526;26.534;2024-02-23T04:11:47;24.00;;;13.90;;
10617;SDS011;5356;43.526;26.534;2024-02-23T04:14:13;22.08;;;12.13;;
10617;SDS011;5356;43.526;26.534;2024-02-23T04:16:38;19.73;;;10.43;;
10617;SDS011;5356;43.526;26.534;2024-02-23T04:19:03;16.58;;;10.23;;
10617;SDS011;5356;43.526;26.534;2024-02-23T04:21:29;17.73;;;10.48;;
10617;SDS011;5356;43.526;26.534;2024-02-23T04:23:54;14.68;;;10.15;;
10617;SDS011;5356;43.526;26.534;2024-02-23T04:26:20;16.23;;;9.88;;
10617;SDS011;5356;43.526;26.534;2024-02-23T04:28:45;16.05;;;10.73;;
10617;SDS011;5356;43.526;26.534;2024-02-23T04:31:11;16.17;;;9.88;;
10617;SDS011;5356;43.526;26.534;2024-02-23T04:33:36;19.92;;;10.45;;
10617;SDS011;5356;43.526;26.534;2024-02-23T04:36:03;18.58;;;10.38;;
10617;SDS011;5356;43.526;26.534;2024-02-23T04:38:29;20.60;;;11.43;;
10617;SDS011;5356;43.526;26.534;2024-02-23T04:40:57;20.10;;;10.95;;
10617;SDS011;5356;43.526;26.534;2024-02-23T04:43:23;20.02;;;11.48;;
10617;SDS011;5356;43.526;26.534;2024-02-23T04:45:50;19.17;;;12.27;;
10617;SDS011;5356;43.526;26.534;2024-02-23T04:48:16;16.85;;;10.48;;
10617;SDS011;5356;43.526;26.534;2024-02-23T04:50:41;24.15;;;12.43;;
10617;SDS011;5356;43.526;26.534;2024-02-23T04:53:07;33.08;;;16.42;;
10617;SDS011;5356;43.526;26.534;2024-02-23T04:55:33;26.15;;;13.70;;
10617;SDS011;5356;43.526;26.534;2024-02-23T04:57:58;20.08;;;12.05;;
10617;SDS011;5356;43.526;26.534;2024-02-23T05:00:24;22.27;;;12.98;;
10617;SDS011;5356;43.526;26.534;2024-02-23T05:02:53;29.13;;;17.08;;
10617;SDS011;5356;43.526;26.534;2024-02-23T05:05:19;20.98;;;12.23;;
10617;SDS011;5356;43.526;26.534;2024-02-23T05:07:46;22.55;;;12.05;;
10617;SDS011;5356;43.526;26.534;2024-02-23T05:10:12;21.98;;;12.77;;
10617;SDS011;5356;43.526;26.534;2024-02-23T05:12:37;26.88;;;13.93;;
10617;SDS011;5356;43.526;26.534;2024-02-23T05:15:03;33.15;;;15.10;;
10617;SDS011;5356;43.526;26.534;2024-02-23T05:17:29;36.30;;;16.13;;
10617;SDS011;5356;43.526;26.534;2024-02-23T05:19:54;29.73;;;16.77;;
10617;SDS011;5356;43.526;26.534;2024-02-23T05:22:19;30.08;;;15.48;;
10617;SDS011;5356;43.526;26.534;2024-02-23T05:24:45;33.63;;;16.02;;
10617;SDS011;5356;43.526;26.534;2024-02-23T05:27:10;25.85;;;12.43;;
10617;SDS011;5356;43.526;26.534;2024-02-23T05:29:36;29.65;;;14.93;;
10617;SDS011;5356;43.526;26.534;2024-02-23T05:32:01;27.52;;;13.80;;
10617;SDS011;5356;43.526;26.534;2024-02-23T05:34:27;23.95;;;13.75;;
10617;SDS011;5356;43.526;26.534;2024-02-23T05:36:52;25.70;;;13.75;;
10617;SDS011;5356;43.526;26.534;2024-02-23T05:39:18;24.75;;;13.73;;
10617;SDS011;5356;43.526;26.534;2024-02-23T05:41:44;24.33;;;13.63;;
10617;SDS011;5356;43.526;26.534;2024-02-23T05:44:09;34.10;;;15.18;;
10617;SDS011;5356;43.526;26.534;2024-02-23T05:46:35;24.50;;;13.02;;
10617;SDS011;5356;43.526;26.534;2024-02-23T05:49:02;25.38;;;12.63;;
10617;SDS011;5356;43.526;26.534;2024-02-23T05:51:29;20.60;;;12.35;;
10617;SDS011;5356;43.526;26.534;2024-02-23T05:53:55;21.58;;;12.55;;
10617;SDS011;5356;43.526;26.534;2024-02-23T05:56:21;27.77;;;15.00;;
10617;SDS011;5356;43.526;26.534;2024-02-23T05:58:48;30.80;;;17.75;;
10617;SDS011;5356;43.526;26.534;2024-02-23T06:01:14;28.15;;;16.98;;
10617;SDS011;5356;43.526;26.534;2024-02-23T06:03:39;22.13;;;14.60;;
10617;SDS011;5356;43.526;26.534;2024-02-23T06:06:08;21.00;;;13.23;;
10617;SDS011;5356;43.526;26.534;2024-02-23T06:08:34;22.85;;;12.32;;
10617;SDS011;5356;43.526;26.534;2024-02-23T06:10:59;17.30;;;12.07;;
10617;SDS011;5356;43.526;26.534;2024-02-23T06:13:25;20.58;;;12.55;;
10617;SDS011;5356;43.526;26.534;2024-02-23T06:15:51;20.13;;;12.70;;
10617;SDS011;5356;43.526;26.534;2024-02-23T06:18:17;18.90;;;10.48;;
10617;SDS011;5356;43.526;26.534;2024-02-23T06:20:42;20.08;;;13.35;;
10617;SDS011;5356;43.526;26.534;2024-02-23T06:23:08;22.10;;;12.60;;
10617;SDS011;5356;43.526;26.534;2024-02-23T06:25:33;17.83;;;10.85;;
10617;SDS011;5356;43.526;26.534;2024-02-23T06:27:59;19.83;;;10.98;;
10617;SDS011;5356;43.526;26.534;2024-02-23T06:30:25;19.42;;;11.85;;
10617;SDS011;5356;43.526;26.534;2024-02-23T06:32:50;22.30;;;12.38;;
10617;SDS011;5356;43.526;26.534;2024-02-23T06:35:16;18.27;;;10.00;;
10617;SDS011;5356;43.526;26.534;2024-02-23T06:37:41;16.75;;;10.18;;
10617;SDS011;5356;43.526;26.534;2024-02-23T06:40:07;17.08;;;11.23;;
10617;SDS011;5356;43.526;26.534;2024-02-23T06:42:33;18.52;;;10.88;;
10617;SDS011;5356;43.526;26.534;2024-02-23T06:44:58;20.35;;;11.18;;
10617;SDS011;5356;43.526;26.534;2024-02-23T06:47:24;18.35;;;10.50;;
10617;SDS011;5356;43.526;26.534;2024-02-23T06:49:50;19.60;;;10.98;;
10617;SDS011;5356;43.526;26.534;2024-02-23T06:52:15;16.63;;;10.65;;
10617;SDS011;5356;43.526;26.534;2024-02-23T06:54:42;18.50;;;11.30;;
10617;SDS011;5356;43.526;26.534;2024-02-23T06:57:07;17.45;;;11.18;;
10617;SDS011;5356;43.526;26.534;2024-02-23T06:59:33;18.67;;;10.60;;
10617;SDS011;5356;43.526;26.534;2024-02-23T07:01:58;19.75;;;12.25;;
10617;SDS011;5356;43.526;26.534;2024-02-23T07:04:24;18.15;;;10.18;;
10617;SDS011;5356;43.526;26.534;2024-02-23T07:06:50;17.48;;;9.95;;
10617;SDS011;5356;43.526;26.534;2024-02-23T07:09:16;19.48;;;9.68;;
10617;SDS011;5356;43.526;26.534;2024-02-23T07:11:41;21.83;;;11.88;;
10617;SDS011;5356;43.526;26.534;2024-02-23T07:14:08;21.67;;;10.70;;
10617;SDS011;5356;43.526;26.534;2024-02-23T07:16:37;16.00;;;9.63;;
10617;SDS011;5356;43.526;26.534;2024-02-23T07:19:04;16.45;;;9.68;;
10617;SDS011;5356;43.526;26.534;2024-02-23T07:21:30;13.43;;;8.98;;
10617;SDS011;5356;43.526;26.534;2024-02-23T07:23:55;16.73;;;10.60;;
10617;SDS011;5356;43.526;26.534;2024-02-23T07:26:21;26.00;;;10.18;;
10617;SDS011;5356;43.526;26.534;2024-02-23T07:28:47;15.25;;;8.70;;
10617;SDS011;5356;43.526;26.534;2024-02-23T07:31:14;13.50;;;9.00;;
10617;SDS011;5356;43.526;26.534;2024-02-23T07:33:40;12.63;;;8.52;;
10617;SDS011;5356;43.526;26.534;2024-02-23T07:36:05;17.23;;;9.40;;
10617;SDS011;5356;43.526;26.534;2024-02-23T07:38:33;15.50;;;8.90;;
10617;SDS011;5356;43.526;26.534;2024-02-23T07:40:59;16.05;;;8.27;;
10617;SDS011;5356;43.526;26.534;2024-02-23T07:43:24;15.15;;;8.50;;
10617;SDS011;5356;43.526;26.534;2024-02-23T07:45:51;18.15;;;9.65;;
10617;SDS011;5356;43.526;26.534;2024-02-23T07:48:17;15.70;;;8.65;;
10617;SDS011;5356;43.526;26.534;2024-02-23T07:50:42;14.15;;;9.48;;
10617;SDS011;5356;43.526;26.534;2024-02-23T07:53:08;15.32;;;10.68;;
10617;SDS011;5356;43.526;26.534;2024-02-23T07:55:33;18.10;;;10.88;;
10617;SDS011;5356;43.526;26.534;2024-02-23T07:57:58;13.90;;;9.00;;
10617;SDS011;5356;43.526;26.534;2024-02-23T08:00:26;13.90;;;9.18;;
10617;SDS011;5356;43.526;26.534;2024-02-23T08:02:52;17.67;;;10.98;;
10617;SDS011;5356;43.526;26.534;2024-02-23T08:05:21;13.00;;;8.88;;
10617;SDS011;5356;43.526;26.534;2024-02-23T08:07:48;12.82;;;8.43;;
10617;SDS011;5356;43.526;26.534;2024-02-23T08:10:13;11.32;;;8.32;;
10617;SDS011;5356;43.526;26.534;2024-02-23T08:12:39;12.75;;;7.80;;
10617;SDS011;5356;43.526;26.534;2024-02-23T08:15:05;10.77;;;7.53;;
10617;SDS011;5356;43.526;26.534;2024-02-23T08:17:31;11.43;;;7.57;;
10617;SDS011;5356;43.526;26.534;2024-02-23T08:19:57;11.25;;;7.10;;
10617;SDS011;5356;43.526;26.534;2024-02-23T08:22:22;29.27;;;11.18;;
10617;SDS011;5356;43.526;26.534;2024-02-23T08:24:48;14.50;;;7.05;;
10617;SDS011;5356;43.526;26.534;2024-02-23T08:27:14;12.80;;;7.05;;
10617;SDS011;5356;43.526;26.534;2024-02-23T08:29:40;9.98;;;7.18;;
10617;SDS011;5356;43.526;26.534;2024-02-23T08:32:06;31.55;;;11.68;;
10617;SDS011;5356;43.526;26.534;2024-02-23T08:34:32;8.90;;;7.20;;
10617;SDS011;5356;43.526;26.534;2024-02-23T08:36:57;9.93;;;6.55;;
10617;SDS011;5356;43.526;26.534;2024-02-23T08:39:22;15.10;;;8.05;;
10617;SDS011;5356;43.526;26.534;2024-02-23T08:41:48;11.05;;;6.10;;
10617;SDS011;5356;43.526;26.534;2024-02-23T08:44:13;8.05;;;5.53;;
10617;SDS011;5356;43.526;26.534;2024-02-23T08:46:39;9.27;;;6.38;;
10617;SDS011;5356;43.526;26.534;2024-02-23T08:49:05;8.00;;;5.57;;
10617;SDS011;5356;43.526;26.534;2024-02-23T08:51:30;27.45;;;15.05;;
10617;SDS011;5356;43.526;26.534;2024-02-23T08:53:56;16.20;;;11.35;;
10617;SDS011;5356;43.526;26.534;2024-02-23T08:56:22;17.65;;;12.10;;
10617;SDS011;5356;43.526;26.534;2024-02-23T08:58:48;12.07;;;7.32;;
10617;SDS011;5356;43.526;26.534;2024-02-23T09:01:13;10.05;;;6.13;;
10617;SDS011;5356;43.526;26.534;2024-02-23T09:03:39;7.90;;;5.90;;
10617;SDS011;5356;43.526;26.534;2024-02-23T09:06:04;7.00;;;4.43;;
10617;SDS011;5356;43.526;26.534;2024-02-23T09:08:30;19.33;;;8.50;;
10617;SDS011;5356;43.526;26.534;2024-02-23T09:10:55;8.43;;;5.53;;
10617;SDS011;5356;43.526;26.534;2024-02-23T09:13:20;22.83;;;13.00;;
10617;SDS011;5356;43.526;26.534;2024-02-23T09:15:46;6.43;;;4.68;;
10617;SDS011;5356;43.526;26.534;2024-02-23T09:18:11;9.30;;;5.63;;
10617;SDS011;5356;43.526;26.534;2024-02-23T09:20:37;29.10;;;9.77;;
10617;SDS011;5356;43.526;26.534;2024-02-23T09:23:02;6.40;;;4.53;;
10617;SDS011;5356;43.526;26.534;2024-02-23T09:25:28;7.28;;;4.13;;
10617;SDS011;5356;43.526;26.534;2024-02-23T09:27:56;7.72;;;5.00;;
10617;SDS011;5356;43.526;26.534;2024-02-23T09:30:22;6.30;;;3.90;;
10617;SDS011;5356;43.526;26.534;2024-02-23T09:32:48;17.48;;;7.32;;
10617;SDS011;5356;43.526;26.534;2024-02-23T09:35:13;19.92;;;7.03;;
10617;SDS011;5356;43.526;26.534;2024-02-23T09:37:39;7.80;;;5.15;;
10617;SDS011;5356;43.526;26.534;2024-02-23T09:40:04;5.97;;;4.28;;
10617;SDS011;5356;43.526;26.534;2024-02-23T09:42:31;5.97;;;4.22;;
10617;SDS011;5356;43.526;26.534;2024-02-23T09:44:58;12.23;;;6.97;;
10617;SDS011;5356;43.526;26.534;2024-02-23T09:47:28;4.80;;;4.05;;
10617;SDS011;5356;43.526;26.534;2024-02-23T09:49:54;18.05;;;7.40;;
10617;SDS011;5356;43.526;26.534;2024-02-23T09:52:20;7.10;;;4.68;;
10617;SDS011;5356;43.526;26.534;2024-02-23T09:54:47;6.03;;;5.10;;
10617;SDS011;5356;43.526;26.534;2024-02-23T09:57:12;6.75;;;4.35;;
10617;SDS011;5356;43.526;26.534;2024-02-23T09:59:39;15.27;;;7.53;;
10617;SDS011;5356;43.526;26.534;2024-02-23T10:02:06;6.05;;;4.68;;
10617;SDS011;5356;43.526;26.534;2024-02-23T10:04:37;10.00;;;7.30;;
10617;SDS011;5356;43.526;26.534;2024-02-23T10:07:05;9.00;;;5.38;;
10617;SDS011;5356;43.526;26.534;2024-02-23T10:09:31;6.40;;;4.78;;
10617;SDS011;5356;43.526;26.534;2024-02-23T10:11:56;9.27;;;6.72;;
10617;SDS011;5356;43.526;26.534;2024-02-23T10:14:22;27.55;;;9.60;;
10617;SDS011;5356;43.526;26.534;2024-02-23T10:16:48;23.88;;;13.30;;
10617;SDS011;5356;43.526;26.534;2024-02-23T10:19:18;17.27;;;10.63;;
10617;SDS011;5356;43.526;26.534;2024-02-23T10:21:47;9.23;;;5.10;;
10617;SDS011;5356;43.526;26.534;2024-02-23T10:24:16;6.82;;;5.03;;
10617;SDS011;5356;43.526;26.534;2024-02-23T10:26:43;6.30;;;4.00;;
10617;SDS011;5356;43.526;26.534;2024-02-23T10:29:09;12.88;;;6.78;;
10617;SDS011;5356;43.526;26.534;2024-02-23T10:31:35;7.05;;;5.00;;
10617;SDS011;5356;43.526;26.534;2024-02-23T10:34:08;5.43;;;4.10;;
10617;SDS011;5356;43.526;26.534;2024-02-23T10:36:41;5.25;;;3.70;;
10617;SDS011;5356;43.526;26.534;2024-02-23T10:39:08;7.22;;;4.68;;
10617;SDS011;5356;43.526;26.534;2024-02-23T10:41:37;5.30;;;4.15;;
10617;SDS011;5356;43.526;26.534;2024-02-23T10:44:09;6.13;;;4.28;;
10617;SDS011;5356;43.526;26.534;2024-02-23T10:46:36;7.32;;;4.13;;
10617;SDS011;5356;43.526;26.534;2024-02-23T10:49:02;6.97;;;4.20;;
10617;SDS011;5356;43.526;26.534;2024-02-23T10:51:28;6.40;;;4.38;;
10617;SDS011;5356;43.526;26.534;2024-02-23T10:53:54;13.98;;;7.82;;
10617;SDS011;5356;43.526;26.534;2024-02-23T10:56:20;7.20;;;4.35;;
10617;SDS011;5356;43.526;26.534;2024-02-23T10:58:47;7.30;;;4.13;;
10617;SDS011;5356;43.526;26.534;2024-02-23T11:01:13;5.75;;;3.97;;
10617;SDS011;5356;43.526;26.534;2024-02-23T11:03:40;9.63;;;4.97;;
10617;SDS011;5356;43.526;26.534;2024-02-23T11:06:09;26.13;;;12.82;;
10617;SDS011;5356;43.526;26.534;2024-02-23T11:08:35;9.38;;;5.65;;
10617;SDS011;5356;43.526;26.534;2024-02-23T11:11:08;10.60;;;4.95;;
10617;SDS011;5356;43.526;26.534;2024-02-23T11:13:34;9.25;;;5.25;;
10617;SDS011;5356;43.526;26.534;2024-02-23T11:16:08;8.48;;;5.15;;
10617;SDS011;5356;43.526;26.534;2024-02-23T11:18:34;9.48;;;4.75;;
10617;SDS011;5356;43.526;26.534;2024-02-23T11:21:01;7.10;;;4.45;;
10617;SDS011;5356;43.526;26.534;2024-02-23T11:28:51;4.82;;;3.83;;
10617;SDS011;5356;43.526;26.534;2024-02-23T11:31:19;6.65;;;4.22;;
10617;SDS011;5356;43.526;26.534;2024-02-23T11:36:23;6.88;;;3.97;;
10617;SDS011;5356;43.526;26.534;2024-02-23T11:38:59;5.38;;;4.03;;
10617;SDS011;5356;43.526;26.534;2024-02-23T11:41:26;6.75;;;4.80;;
10617;SDS011;5356;43.526;26.534;2024-02-23T11:43:52;8.13;;;5.38;;
10617;SDS011;5356;43.526;26.534;2024-02-23T11:46:19;7.72;;;4.72;;
10617;SDS011;5356;43.526;26.534;2024-02-23T11:48:45;5.63;;;4.45;;
10617;SDS011;5356;43.526;26.534;2024-02-23T11:51:19;12.35;;;6.90;;
10617;SDS011;5356;43.526;26.534;2024-02-23T11:53:46;13.95;;;8.40;;
10617;SDS011;5356;43.526;26.534;2024-02-23T11:56:12;24.23;;;16.60;;
10617;SDS011;5356;43.526;26.534;2024-02-23T11:58:39;9.68;;;6.07;;
10617;SDS011;5356;43.526;26.534;2024-02-23T12:01:05;11.85;;;7.90;;
10617;SDS011;5356;43.526;26.534;2024-02-23T12:03:32;20.23;;;7.30;;
10617;SDS011;5356;43.526;26.534;2024-02-23T12:05:58;10.38;;;4.35;;
10617;SDS011;5356;43.526;26.534;2024-02-23T12:08:27;8.48;;;5.47;;
10617;SDS011;5356;43.526;26.534;2024-02-23T12:10:56;5.22;;;3.55;;
10617;SDS011;5356;43.526;26.534;2024-02-23T12:13:25;8.23;;;4.47;;
10617;SDS011;5356;43.526;26.534;2024-02-23T12:15:52;13.02;;;5.43;;
10617;SDS011;5356;43.526;26.534;2024-02-23T12:18:27;5.60;;;4.30;;
10617;SDS011;5356;43.526;26.534;2024-02-23T12:21:02;9.02;;;5.45;;
10617;SDS011;5356;43.526;26.534;2024-02-23T12:23:44;11.43;;;4.88;;
10617;SDS011;5356;43.526;26.534;2024-02-23T12:26:12;5.78;;;3.97;;
10617;SDS011;5356;43.526;26.534;2024-02-23T12:28:39;9.32;;;5.18;;
10617;SDS011;5356;43.526;26.534;2024-02-23T12:31:05;8.25;;;5.65;;
10617;SDS011;5356;43.526;26.534;2024-02-23T12:33:32;77.88;;;39.72;;
10617;SDS011;5356;43.526;26.534;2024-02-23T12:36:02;16.13;;;9.68;;
10617;SDS011;5356;43.526;26.534;2024-02-23T12:38:29;11.15;;;4.72;;
10617;SDS011;5356;43.526;26.534;2024-02-23T12:40:56;4.53;;;3.67;;
10617;SDS011;5356;43.526;26.534;2024-02-23T12:43:22;4.90;;;3.75;;
10617;SDS011;5356;43.526;26.534;2024-02-23T12:45:52;4.82;;;3.45;;
10617;SDS011;5356;43.526;26.534;2024-02-23T12:48:18;15.43;;;5.85;;
10617;SDS011;5356;43.526;26.534;2024-02-23T12:50:45;19.65;;;7.68;;
10617;SDS011;5356;43.526;26.534;2024-02-23T12:53:56;21.63;;;9.80;;
10617;SDS011;5356;43.526;26.534;2024-02-23T12:58:32;12.85;;;6.68;;
10617;SDS011;5356;43.526;26.534;2024-02-23T13:00:58;6.15;;;4.15;;
10617;SDS011;5356;43.526;26.534;2024-02-23T13:03:24;27.00;;;10.38;;
10617;SDS011;5356;43.526;26.534;2024-02-23T13:05:52;8.73;;;5.35;;
10617;SDS011;5356;43.526;26.534;2024-02-23T13:08:21;6.10;;;4.70;;
10617;SDS011;5356;43.526;26.534;2024-02-23T13:10:47;6.78;;;5.95;;
10617;SDS011;5356;43.526;26.534;2024-02-23T13:13:13;16.35;;;7.97;;
10617;SDS011;5356;43.526;26.534;2024-02-23T13:15:42;10.70;;;5.25;;
10617;SDS011;5356;43.526;26.534;2024-02-23T13:18:08;6.03;;;4.63;;
10617;SDS011;5356;43.526;26.534;2024-02-23T13:20:34;6.00;;;4.50;;
10617;SDS011;5356;43.526;26.534;2024-02-23T13:23:00;6.13;;;4.70;;
10617;SDS011;5356;43.526;26.534;2024-02-23T13:25:27;5.18;;;4.65;;
10617;SDS011;5356;43.526;26.534;2024-02-23T13:27:52;5.35;;;4.05;;
10617;SDS011;5356;43.526;26.534;2024-02-23T13:30:18;6.63;;;5.13;;
10617;SDS011;5356;43.526;26.534;2024-02-23T13:32:44;7.43;;;5.20;;
10617;SDS011;5356;43.526;26.534;2024-02-23T13:35:09;6.07;;;4.00;;
10617;SDS011;5356;43.526;26.534;2024-02-23T13:37:34;7.38;;;4.50;;
10617;SDS011;5356;43.526;26.534;2024-02-23T13:40:00;10.02;;;4.88;;
10617;SDS011;5356;43.526;26.534;2024-02-23T13:42:26;5.07;;;3.75;;
10617;SDS011;5356;43.526;26.534;2024-02-23T13:44:51;5.93;;;4.75;;
10617;SDS011;5356;43.526;26.534;2024-02-23T13:47:17;6.57;;;4.63;;
10617;SDS011;5356;43.526;26.534;2024-02-23T13:49:42;9.05;;;5.43;;
10617;SDS011;5356;43.526;26.534;2024-02-23T13:52:08;13.02;;;6.82;;
10617;SDS011;5356;43.526;26.534;2024-02-23T13:54:33;11.77;;;8.45;;
10617;SDS011;5356;43.526;26.534;2024-02-23T13:56:59;17.60;;;7.82;;
10617;SDS011;5356;43.526;26.534;2024-02-23T13:59:24;12.02;;;6.10;;
10617;SDS011;5356;43.526;26.534;2024-02-23T14:01:50;5.00;;;4.30;;
10617;SDS011;5356;43.526;26.534;2024-02-23T14:04:15;6.20;;;4.15;;
10617;SDS011;5356;43.526;26.534;2024-02-23T14:06:42;5.25;;;4.25;;
10617;SDS011;5356;43.526;26.534;2024-02-23T14:09:08;5.53;;;4.35;;
10617;SDS011;5356;43.526;26.534;2024-02-23T14:11:34;13.00;;;6.60;;
10617;SDS011;5356;43.526;26.534;2024-02-23T14:14:00;5.20;;;4.38;;
10617;SDS011;5356;43.526;26.534;2024-02-23T14:16:27;5.70;;;4.40;;
10617;SDS011;5356;43.526;26.534;2024-02-23T14:18:53;6.05;;;4.68;;
10617;SDS011;5356;43.526;26.534;2024-02-23T14:21:19;8.20;;;5.30;;
10617;SDS011;5356;43.526;26.534;2024-02-23T14:23:46;32.53;;;10.30;;
10617;SDS011;5356;43.526;26.534;2024-02-23T14:26:11;23.48;;;9.65;;
10617;SDS011;5356;43.526;26.534;2024-02-23T14:28:37;11.60;;;8.05;;
10617;SDS011;5356;43.526;26.534;2024-02-23T14:31:03;8.57;;;6.15;;
10617;SDS011;5356;43.526;26.534;2024-02-23T14:33:29;10.18;;;7.50;;
10617;SDS011;5356;43.526;26.534;2024-02-23T14:35:54;10.90;;;7.68;;
10617;SDS011;5356;43.526;26.534;2024-02-23T14:38:20;27.75;;;17.95;;